sensor_id;sensor_type;location;lat;lon;timestamp;P1;durP1;ratioP1;P2;durP2;ratioP2
61200;SDS011;47065;52.898;6.992;2023-05-24T00:01:40;25.30;;;7.22;;
61200;SDS011;47065;52.898;6.992;2023-05-24T00:04:07;23.42;;;7.28;;
61200;SDS011;47065;52.898;6.992;2023-05-24T00:06:33;27.23;;;6.82;;
61200;SDS011;47065;52.898;6.992;2023-05-24T00:09:02;16.67;;;5.22;;
61200;SDS011;47065;52.898;6.992;2023-05-24T00:11:28;25.05;;;6.95;;
61200;SDS011;47065;52.898;6.992;2023-05-24T00:13:54;24.92;;;7.78;;
61200;SDS011;47065;52.898;6.992;2023-05-24T00:16:19;24.80;;;5.45;;
61200;SDS011;47065;52.898;6.992;2023-05-24T00:18:45;26.13;;;7.38;;
61200;SDS011;47065;52.898;6.992;2023-05-24T00:21:12;24.35;;;6.60;;
61200;SDS011;47065;52.898;6.992;2023-05-24T00:23:38;27.38;;;6.90;;
61200;SDS011;47065;52.898;6.992;2023-05-24T00:26:06;21.92;;;6.25;;
61200;SDS011;47065;52.898;6.992;2023-05-24T00:28:32;30.52;;;7.00;;
61200;SDS011;47065;52.898;6.992;2023-05-24T00:30:58;24.45;;;6.18;;
61200;SDS011;47065;52.898;6.992;2023-05-24T00:33:24;28.23;;;7.40;;
61200;SDS011;47065;52.898;6.992;2023-05-24T00:35:51;31.50;;;7.47;;
61200;SDS011;47065;52.898;6.992;2023-05-24T00:38:23;31.17;;;7.32;;
61200;SDS011;47065;52.898;6.992;2023-05-24T00:40:50;22.52;;;6.57;;
61200;SDS011;47065;52.898;6.992;2023-05-24T00:43:16;23.17;;;6.18;;
61200;SDS011;47065;52.898;6.992;2023-05-24T00:45:43;25.65;;;8.20;;
61200;SDS011;47065;52.898;6.992;2023-05-24T00:48:09;25.05;;;6.55;;
61200;SDS011;47065;52.898;6.992;2023-05-24T00:50:36;24.55;;;7.50;;
61200;SDS011;47065;52.898;6.992;2023-05-24T00:53:03;25.90;;;9.55;;
61200;SDS011;47065;52.898;6.992;2023-05-24T00:55:30;25.40;;;7.93;;
61200;SDS011;47065;52.898;6.992;2023-05-24T00:57:57;22.35;;;6.13;;
61200;SDS011;47065;52.898;6.992;2023-05-24T01:00:23;35.38;;;8.07;;
61200;SDS011;47065;52.898;6.992;2023-05-24T01:02:49;28.65;;;7.50;;
61200;SDS011;47065;52.898;6.992;2023-05-24T01:05:15;25.58;;;6.65;;
61200;SDS011;47065;52.898;6.992;2023-05-24T01:10:31;33.65;;;6.93;;
61200;SDS011;47065;52.898;6.992;2023-05-24T01:15:50;22.75;;;7.22;;
61200;SDS011;47065;52.898;6.992;2023-05-24T01:18:23;25.83;;;7.57;;
61200;SDS011;47065;52.898;6.992;2023-05-24T01:20:58;28.17;;;6.63;;
61200;SDS011;47065;52.898;6.992;2023-05-24T01:29:29;24.58;;;8.35;;
61200;SDS011;47065;52.898;6.992;2023-05-24T01:31:56;23.42;;;7.32;;
61200;SDS011;47065;52.898;6.992;2023-05-24T01:34:24;33.13;;;8.68;;
61200;SDS011;47065;52.898;6.992;2023-05-24T01:36:49;28.90;;;7.45;;
61200;SDS011;47065;52.898;6.992;2023-05-24T01:39:16;29.80;;;8.18;;
61200;SDS011;47065;52.898;6.992;2023-05-24T01:41:46;30.42;;;7.60;;
61200;SDS011;47065;52.898;6.992;2023-05-24T01:50:06;23.35;;;7.93;;
61200;SDS011;47065;52.898;6.992;2023-05-24T01:52:42;30.40;;;8.35;;
61200;SDS011;47065;52.898;6.992;2023-05-24T01:55:11;26.00;;;8.00;;
61200;SDS011;47065;52.898;6.992;2023-05-24T01:57:39;24.33;;;7.75;;
61200;SDS011;47065;52.898;6.992;2023-05-24T02:00:10;24.02;;;9.80;;
61200;SDS011;47065;52.898;6.992;2023-05-24T02:02:38;26.70;;;8.90;;
61200;SDS011;47065;52.898;6.992;2023-05-24T02:05:03;31.50;;;8.18;;
61200;SDS011;47065;52.898;6.992;2023-05-24T02:07:29;28.55;;;7.03;;
61200;SDS011;47065;52.898;6.992;2023-05-24T02:09:55;37.10;;;8.82;;
61200;SDS011;47065;52.898;6.992;2023-05-24T02:12:21;18.48;;;6.90;;
61200;SDS011;47065;52.898;6.992;2023-05-24T02:14:46;20.13;;;7.03;;
61200;SDS011;47065;52.898;6.992;2023-05-24T02:17:15;39.45;;;8.32;;
61200;SDS011;47065;52.898;6.992;2023-05-24T02:19:43;33.40;;;9.02;;
61200;SDS011;47065;52.898;6.992;2023-05-24T02:22:08;34.05;;;8.93;;
61200;SDS011;47065;52.898;6.992;2023-05-24T02:24:34;31.50;;;8.60;;
61200;SDS011;47065;52.898;6.992;2023-05-24T02:27:01;32.72;;;9.43;;
61200;SDS011;47065;52.898;6.992;2023-05-24T02:29:27;23.08;;;7.70;;
61200;SDS011;47065;52.898;6.992;2023-05-24T02:31:52;30.92;;;10.32;;
61200;SDS011;47065;52.898;6.992;2023-05-24T02:34:21;38.88;;;8.43;;
61200;SDS011;47065;52.898;6.992;2023-05-24T02:36:47;34.22;;;9.07;;
61200;SDS011;47065;52.898;6.992;2023-05-24T02:39:13;35.88;;;9.32;;
61200;SDS011;47065;52.898;6.992;2023-05-24T02:41:39;31.95;;;9.23;;
61200;SDS011;47065;52.898;6.992;2023-05-24T02:44:05;34.20;;;9.43;;
61200;SDS011;47065;52.898;6.992;2023-05-24T02:46:30;23.23;;;7.18;;
61200;SDS011;47065;52.898;6.992;2023-05-24T02:48:56;35.83;;;9.55;;
61200;SDS011;47065;52.898;6.992;2023-05-24T02:51:22;38.25;;;9.10;;
61200;SDS011;47065;52.898;6.992;2023-05-24T02:53:47;28.55;;;10.48;;
61200;SDS011;47065;52.898;6.992;2023-05-24T02:56:13;33.85;;;7.78;;
61200;SDS011;47065;52.898;6.992;2023-05-24T02:58:41;35.25;;;8.45;;
61200;SDS011;47065;52.898;6.992;2023-05-24T03:01:09;30.58;;;8.07;;
61200;SDS011;47065;52.898;6.992;2023-05-24T03:03:36;29.35;;;7.60;;
61200;SDS011;47065;52.898;6.992;2023-05-24T03:06:03;36.58;;;8.50;;
61200;SDS011;47065;52.898;6.992;2023-05-24T03:08:28;28.55;;;7.60;;
61200;SDS011;47065;52.898;6.992;2023-05-24T03:10:54;36.55;;;10.32;;
61200;SDS011;47065;52.898;6.992;2023-05-24T03:13:19;32.90;;;8.15;;
61200;SDS011;47065;52.898;6.992;2023-05-24T03:15:45;36.67;;;8.95;;
61200;SDS011;47065;52.898;6.992;2023-05-24T03:18:11;36.13;;;8.48;;
61200;SDS011;47065;52.898;6.992;2023-05-24T03:20:36;31.83;;;9.30;;
61200;SDS011;47065;52.898;6.992;2023-05-24T03:23:02;31.15;;;9.30;;
61200;SDS011;47065;52.898;6.992;2023-05-24T03:25:27;33.05;;;8.68;;
61200;SDS011;47065;52.898;6.992;2023-05-24T03:27:53;38.55;;;9.00;;
61200;SDS011;47065;52.898;6.992;2023-05-24T03:30:19;37.42;;;9.90;;
61200;SDS011;47065;52.898;6.992;2023-05-24T03:32:44;39.47;;;10.10;;
61200;SDS011;47065;52.898;6.992;2023-05-24T03:35:10;42.33;;;10.27;;
61200;SDS011;47065;52.898;6.992;2023-05-24T03:37:36;27.02;;;9.55;;
61200;SDS011;47065;52.898;6.992;2023-05-24T03:40:02;32.15;;;9.15;;
61200;SDS011;47065;52.898;6.992;2023-05-24T03:42:29;33.45;;;9.32;;
61200;SDS011;47065;52.898;6.992;2023-05-24T03:44:54;35.05;;;9.50;;
61200;SDS011;47065;52.898;6.992;2023-05-24T03:47:20;33.90;;;11.05;;
61200;SDS011;47065;52.898;6.992;2023-05-24T03:49:45;29.52;;;8.90;;
61200;SDS011;47065;52.898;6.992;2023-05-24T03:52:11;24.65;;;8.20;;
61200;SDS011;47065;52.898;6.992;2023-05-24T03:54:37;30.33;;;8.25;;
61200;SDS011;47065;52.898;6.992;2023-05-24T03:57:02;26.40;;;7.53;;
61200;SDS011;47065;52.898;6.992;2023-05-24T03:59:28;27.05;;;8.27;;
61200;SDS011;47065;52.898;6.992;2023-05-24T04:01:54;29.13;;;8.68;;
61200;SDS011;47065;52.898;6.992;2023-05-24T04:04:20;28.67;;;7.78;;
61200;SDS011;47065;52.898;6.992;2023-05-24T04:06:46;31.52;;;8.43;;
61200;SDS011;47065;52.898;6.992;2023-05-24T04:09:13;30.05;;;8.30;;
61200;SDS011;47065;52.898;6.992;2023-05-24T04:11:39;20.90;;;6.43;;
61200;SDS011;47065;52.898;6.992;2023-05-24T04:14:05;32.17;;;8.90;;
61200;SDS011;47065;52.898;6.992;2023-05-24T04:16:31;41.78;;;7.32;;
61200;SDS011;47065;52.898;6.992;2023-05-24T04:18:58;24.90;;;6.93;;
61200;SDS011;47065;52.898;6.992;2023-05-24T04:21:28;24.90;;;7.30;;
61200;SDS011;47065;52.898;6.992;2023-05-24T04:23:54;26.35;;;7.20;;
61200;SDS011;47065;52.898;6.992;2023-05-24T04:26:25;25.98;;;8.70;;
61200;SDS011;47065;52.898;6.992;2023-05-24T04:28:51;34.05;;;6.78;;
61200;SDS011;47065;52.898;6.992;2023-05-24T04:31:17;33.55;;;6.80;;
61200;SDS011;47065;52.898;6.992;2023-05-24T04:33:44;31.40;;;6.95;;
61200;SDS011;47065;52.898;6.992;2023-05-24T04:36:09;26.95;;;9.57;;
61200;SDS011;47065;52.898;6.992;2023-05-24T04:38:35;24.38;;;6.97;;
61200;SDS011;47065;52.898;6.992;2023-05-24T04:41:02;29.13;;;7.50;;
61200;SDS011;47065;52.898;6.992;2023-05-24T04:43:29;22.85;;;7.55;;
61200;SDS011;47065;52.898;6.992;2023-05-24T04:45:55;24.15;;;8.65;;
61200;SDS011;47065;52.898;6.992;2023-05-24T04:48:21;30.23;;;6.13;;
61200;SDS011;47065;52.898;6.992;2023-05-24T04:50:49;17.92;;;7.22;;
61200;SDS011;47065;52.898;6.992;2023-05-24T04:53:16;25.65;;;6.45;;
61200;SDS011;47065;52.898;6.992;2023-05-24T04:55:42;32.17;;;7.70;;
61200;SDS011;47065;52.898;6.992;2023-05-24T04:58:08;28.02;;;7.40;;
61200;SDS011;47065;52.898;6.992;2023-05-24T05:00:33;19.00;;;5.80;;
61200;SDS011;47065;52.898;6.992;2023-05-24T05:02:59;26.55;;;7.35;;
61200;SDS011;47065;52.898;6.992;2023-05-24T05:05:24;21.08;;;6.43;;
61200;SDS011;47065;52.898;6.992;2023-05-24T05:07:50;28.60;;;8.05;;
61200;SDS011;47065;52.898;6.992;2023-05-24T05:10:15;30.27;;;7.20;;
61200;SDS011;47065;52.898;6.992;2023-05-24T05:12:41;28.60;;;6.53;;
61200;SDS011;47065;52.898;6.992;2023-05-24T05:15:07;28.55;;;7.47;;
61200;SDS011;47065;52.898;6.992;2023-05-24T05:17:33;19.55;;;5.47;;
61200;SDS011;47065;52.898;6.992;2023-05-24T05:19:58;26.48;;;7.63;;
61200;SDS011;47065;52.898;6.992;2023-05-24T05:22:24;21.60;;;5.07;;
61200;SDS011;47065;52.898;6.992;2023-05-24T05:24:50;21.85;;;6.82;;
61200;SDS011;47065;52.898;6.992;2023-05-24T05:27:16;21.27;;;5.55;;
61200;SDS011;47065;52.898;6.992;2023-05-24T05:29:42;21.02;;;6.30;;
61200;SDS011;47065;52.898;6.992;2023-05-24T05:32:07;23.13;;;5.45;;
61200;SDS011;47065;52.898;6.992;2023-05-24T05:34:33;24.83;;;6.53;;
61200;SDS011;47065;52.898;6.992;2023-05-24T05:36:58;20.63;;;5.68;;
61200;SDS011;47065;52.898;6.992;2023-05-24T05:39:24;19.15;;;5.63;;
61200;SDS011;47065;52.898;6.992;2023-05-24T05:41:50;17.58;;;6.28;;
61200;SDS011;47065;52.898;6.992;2023-05-24T05:44:15;21.67;;;6.50;;
61200;SDS011;47065;52.898;6.992;2023-05-24T05:46:41;30.17;;;6.97;;
61200;SDS011;47065;52.898;6.992;2023-05-24T05:49:10;20.75;;;6.18;;
61200;SDS011;47065;52.898;6.992;2023-05-24T05:51:36;23.75;;;5.15;;
61200;SDS011;47065;52.898;6.992;2023-05-24T05:54:03;21.92;;;4.75;;
61200;SDS011;47065;52.898;6.992;2023-05-24T05:56:29;19.38;;;4.93;;
61200;SDS011;47065;52.898;6.992;2023-05-24T05:58:55;25.27;;;6.30;;
61200;SDS011;47065;52.898;6.992;2023-05-24T06:01:22;23.92;;;5.95;;
61200;SDS011;47065;52.898;6.992;2023-05-24T06:03:47;26.00;;;5.88;;
61200;SDS011;47065;52.898;6.992;2023-05-24T06:06:13;20.60;;;6.50;;
61200;SDS011;47065;52.898;6.992;2023-05-24T06:08:38;26.30;;;6.20;;
61200;SDS011;47065;52.898;6.992;2023-05-24T06:11:05;20.52;;;4.35;;
61200;SDS011;47065;52.898;6.992;2023-05-24T06:13:30;23.45;;;6.43;;
61200;SDS011;47065;52.898;6.992;2023-05-24T06:15:57;23.75;;;5.80;;
61200;SDS011;47065;52.898;6.992;2023-05-24T06:18:23;18.92;;;4.82;;
61200;SDS011;47065;52.898;6.992;2023-05-24T06:20:49;21.13;;;5.80;;
61200;SDS011;47065;52.898;6.992;2023-05-24T06:23:15;16.65;;;6.25;;
61200;SDS011;47065;52.898;6.992;2023-05-24T06:25:41;12.82;;;4.72;;
61200;SDS011;47065;52.898;6.992;2023-05-24T06:28:07;26.30;;;5.55;;
61200;SDS011;47065;52.898;6.992;2023-05-24T06:30:33;19.88;;;5.68;;
61200;SDS011;47065;52.898;6.992;2023-05-24T06:32:59;20.20;;;5.80;;
61200;SDS011;47065;52.898;6.992;2023-05-24T06:35:25;19.35;;;4.53;;
61200;SDS011;47065;52.898;6.992;2023-05-24T06:37:51;22.88;;;6.68;;
61200;SDS011;47065;52.898;6.992;2023-05-24T06:40:16;35.75;;;7.38;;
61200;SDS011;47065;52.898;6.992;2023-05-24T06:42:42;15.93;;;4.90;;
61200;SDS011;47065;52.898;6.992;2023-05-24T06:45:08;20.27;;;4.80;;
61200;SDS011;47065;52.898;6.992;2023-05-24T06:47:34;15.02;;;5.30;;
61200;SDS011;47065;52.898;6.992;2023-05-24T06:50:00;21.92;;;4.70;;
61200;SDS011;47065;52.898;6.992;2023-05-24T06:52:28;16.70;;;5.43;;
61200;SDS011;47065;52.898;6.992;2023-05-24T06:54:53;19.75;;;4.93;;
61200;SDS011;47065;52.898;6.992;2023-05-24T06:57:19;25.63;;;5.88;;
61200;SDS011;47065;52.898;6.992;2023-05-24T06:59:45;16.50;;;5.65;;
61200;SDS011;47065;52.898;6.992;2023-05-24T07:02:11;20.38;;;4.95;;
61200;SDS011;47065;52.898;6.992;2023-05-24T07:04:36;20.38;;;5.72;;
61200;SDS011;47065;52.898;6.992;2023-05-24T07:07:05;17.55;;;5.97;;
61200;SDS011;47065;52.898;6.992;2023-05-24T07:09:30;19.10;;;5.00;;
61200;SDS011;47065;52.898;6.992;2023-05-24T07:11:56;19.67;;;4.70;;
61200;SDS011;47065;52.898;6.992;2023-05-24T07:14:22;16.58;;;4.78;;
61200;SDS011;47065;52.898;6.992;2023-05-24T07:16:49;23.83;;;5.53;;
61200;SDS011;47065;52.898;6.992;2023-05-24T07:19:15;16.80;;;4.13;;
61200;SDS011;47065;52.898;6.992;2023-05-24T07:21:41;15.82;;;5.18;;
61200;SDS011;47065;52.898;6.992;2023-05-24T07:24:06;20.38;;;5.18;;
61200;SDS011;47065;52.898;6.992;2023-05-24T07:26:32;14.45;;;4.40;;
61200;SDS011;47065;52.898;6.992;2023-05-24T07:28:58;31.33;;;6.68;;
61200;SDS011;47065;52.898;6.992;2023-05-24T07:31:23;20.50;;;4.05;;
61200;SDS011;47065;52.898;6.992;2023-05-24T07:33:50;10.95;;;4.15;;
61200;SDS011;47065;52.898;6.992;2023-05-24T07:36:16;20.15;;;5.40;;
61200;SDS011;47065;52.898;6.992;2023-05-24T07:38:41;13.50;;;3.50;;
61200;SDS011;47065;52.898;6.992;2023-05-24T07:41:07;16.17;;;4.43;;
61200;SDS011;47065;52.898;6.992;2023-05-24T07:43:33;16.77;;;4.20;;
61200;SDS011;47065;52.898;6.992;2023-05-24T07:45:58;17.80;;;3.95;;
61200;SDS011;47065;52.898;6.992;2023-05-24T07:48:24;12.98;;;4.22;;
61200;SDS011;47065;52.898;6.992;2023-05-24T07:50:50;15.82;;;3.75;;
61200;SDS011;47065;52.898;6.992;2023-05-24T07:53:16;11.73;;;3.45;;
61200;SDS011;47065;52.898;6.992;2023-05-24T07:55:42;15.73;;;4.57;;
61200;SDS011;47065;52.898;6.992;2023-05-24T07:58:10;12.77;;;3.40;;
61200;SDS011;47065;52.898;6.992;2023-05-24T08:00:36;13.52;;;3.58;;
61200;SDS011;47065;52.898;6.992;2023-05-24T08:03:02;15.65;;;3.50;;
61200;SDS011;47065;52.898;6.992;2023-05-24T08:05:29;11.02;;;3.08;;
61200;SDS011;47065;52.898;6.992;2023-05-24T08:07:55;15.45;;;3.40;;
61200;SDS011;47065;52.898;6.992;2023-05-24T08:10:21;12.38;;;3.80;;
61200;SDS011;47065;52.898;6.992;2023-05-24T08:12:47;17.85;;;3.83;;
61200;SDS011;47065;52.898;6.992;2023-05-24T08:15:15;12.13;;;3.83;;
61200;SDS011;47065;52.898;6.992;2023-05-24T08:17:41;12.52;;;3.05;;
61200;SDS011;47065;52.898;6.992;2023-05-24T08:20:07;13.00;;;3.40;;
61200;SDS011;47065;52.898;6.992;2023-05-24T08:22:39;11.35;;;3.63;;
61200;SDS011;47065;52.898;6.992;2023-05-24T08:25:05;8.48;;;3.30;;
61200;SDS011;47065;52.898;6.992;2023-05-24T08:27:31;9.60;;;3.05;;
61200;SDS011;47065;52.898;6.992;2023-05-24T08:29:57;15.02;;;3.38;;
61200;SDS011;47065;52.898;6.992;2023-05-24T08:32:23;12.60;;;2.88;;
61200;SDS011;47065;52.898;6.992;2023-05-24T08:34:48;10.18;;;3.30;;
61200;SDS011;47065;52.898;6.992;2023-05-24T08:37:14;12.00;;;3.03;;
61200;SDS011;47065;52.898;6.992;2023-05-24T08:39:43;10.35;;;3.70;;
61200;SDS011;47065;52.898;6.992;2023-05-24T08:42:09;12.68;;;3.25;;
61200;SDS011;47065;52.898;6.992;2023-05-24T08:44:46;11.45;;;3.38;;
61200;SDS011;47065;52.898;6.992;2023-05-24T08:47:13;11.88;;;3.20;;
61200;SDS011;47065;52.898;6.992;2023-05-24T08:49:42;17.23;;;3.63;;
61200;SDS011;47065;52.898;6.992;2023-05-24T08:52:08;9.95;;;3.42;;
61200;SDS011;47065;52.898;6.992;2023-05-24T08:54:36;10.18;;;3.65;;
61200;SDS011;47065;52.898;6.992;2023-05-24T08:57:02;8.50;;;5.10;;
61200;SDS011;47065;52.898;6.992;2023-05-24T08:59:29;12.18;;;3.22;;
61200;SDS011;47065;52.898;6.992;2023-05-24T09:01:55;13.45;;;3.35;;
61200;SDS011;47065;52.898;6.992;2023-05-24T09:04:22;13.45;;;4.15;;
61200;SDS011;47065;52.898;6.992;2023-05-24T09:06:51;16.10;;;4.13;;
61200;SDS011;47065;52.898;6.992;2023-05-24T09:09:19;9.20;;;3.65;;
61200;SDS011;47065;52.898;6.992;2023-05-24T09:11:46;13.57;;;3.75;;
61200;SDS011;47065;52.898;6.992;2023-05-24T09:14:13;12.20;;;3.83;;
61200;SDS011;47065;52.898;6.992;2023-05-24T09:16:39;12.10;;;2.90;;
61200;SDS011;47065;52.898;6.992;2023-05-24T09:19:06;12.57;;;3.10;;
61200;SDS011;47065;52.898;6.992;2023-05-24T09:21:31;11.63;;;3.10;;
61200;SDS011;47065;52.898;6.992;2023-05-24T09:23:58;9.75;;;3.80;;
61200;SDS011;47065;52.898;6.992;2023-05-24T09:26:26;9.43;;;2.95;;
61200;SDS011;47065;52.898;6.992;2023-05-24T09:28:54;9.50;;;2.92;;
61200;SDS011;47065;52.898;6.992;2023-05-24T09:31:31;7.45;;;3.13;;
61200;SDS011;47065;52.898;6.992;2023-05-24T09:33:58;18.60;;;4.32;;
61200;SDS011;47065;52.898;6.992;2023-05-24T09:36:23;20.13;;;4.18;;
61200;SDS011;47065;52.898;6.992;2023-05-24T09:39:00;13.45;;;2.88;;
61200;SDS011;47065;52.898;6.992;2023-05-24T09:41:35;13.38;;;3.35;;
61200;SDS011;47065;52.898;6.992;2023-05-24T09:44:01;15.48;;;4.07;;
61200;SDS011;47065;52.898;6.992;2023-05-24T09:46:27;10.25;;;3.63;;
61200;SDS011;47065;52.898;6.992;2023-05-24T09:48:57;10.52;;;3.05;;
61200;SDS011;47065;52.898;6.992;2023-05-24T09:51:24;11.25;;;2.63;;
61200;SDS011;47065;52.898;6.992;2023-05-24T09:53:50;13.80;;;2.70;;
61200;SDS011;47065;52.898;6.992;2023-05-24T09:56:21;9.80;;;3.10;;
61200;SDS011;47065;52.898;6.992;2023-05-24T09:58:50;13.35;;;3.33;;
61200;SDS011;47065;52.898;6.992;2023-05-24T10:01:15;9.85;;;2.75;;
61200;SDS011;47065;52.898;6.992;2023-05-24T10:03:55;12.57;;;3.83;;
61200;SDS011;47065;52.898;6.992;2023-05-24T10:06:22;15.45;;;3.20;;
61200;SDS011;47065;52.898;6.992;2023-05-24T10:08:51;9.77;;;3.10;;
61200;SDS011;47065;52.898;6.992;2023-05-24T10:11:18;13.77;;;4.80;;
61200;SDS011;47065;52.898;6.992;2023-05-24T10:13:45;14.23;;;3.95;;
61200;SDS011;47065;52.898;6.992;2023-05-24T10:16:12;12.50;;;3.60;;
61200;SDS011;47065;52.898;6.992;2023-05-24T10:18:38;11.70;;;2.88;;
61200;SDS011;47065;52.898;6.992;2023-05-24T10:21:06;10.52;;;4.50;;
61200;SDS011;47065;52.898;6.992;2023-05-24T10:23:38;7.75;;;2.50;;
61200;SDS011;47065;52.898;6.992;2023-05-24T10:26:08;9.30;;;3.63;;
61200;SDS011;47065;52.898;6.992;2023-05-24T10:28:43;7.70;;;2.75;;
61200;SDS011;47065;52.898;6.992;2023-05-24T10:33:43;8.85;;;3.25;;
61200;SDS011;47065;52.898;6.992;2023-05-24T10:36:12;12.52;;;3.95;;
61200;SDS011;47065;52.898;6.992;2023-05-24T10:38:40;11.02;;;3.17;;
61200;SDS011;47065;52.898;6.992;2023-05-24T10:41:08;11.15;;;3.47;;
61200;SDS011;47065;52.898;6.992;2023-05-24T10:43:37;9.65;;;3.70;;
61200;SDS011;47065;52.898;6.992;2023-05-24T10:46:03;10.52;;;3.88;;
61200;SDS011;47065;52.898;6.992;2023-05-24T10:48:38;12.85;;;4.10;;
61200;SDS011;47065;52.898;6.992;2023-05-24T10:53:54;8.65;;;3.95;;
61200;SDS011;47065;52.898;6.992;2023-05-24T10:56:21;12.30;;;3.72;;
61200;SDS011;47065;52.898;6.992;2023-05-24T11:01:26;9.18;;;3.88;;
61200;SDS011;47065;52.898;6.992;2023-05-24T11:04:04;15.30;;;4.65;;
61200;SDS011;47065;52.898;6.992;2023-05-24T11:09:25;12.02;;;3.42;;
61200;SDS011;47065;52.898;6.992;2023-05-24T11:11:55;8.38;;;3.20;;
61200;SDS011;47065;52.898;6.992;2023-05-24T11:14:28;13.07;;;3.55;;
61200;SDS011;47065;52.898;6.992;2023-05-24T11:16:56;13.10;;;3.35;;
61200;SDS011;47065;52.898;6.992;2023-05-24T11:19:31;14.23;;;3.55;;
61200;SDS011;47065;52.898;6.992;2023-05-24T11:21:58;18.30;;;3.67;;
61200;SDS011;47065;52.898;6.992;2023-05-24T11:24:26;14.20;;;3.70;;
61200;SDS011;47065;52.898;6.992;2023-05-24T11:26:53;11.90;;;3.80;;
61200;SDS011;47065;52.898;6.992;2023-05-24T11:29:18;8.75;;;3.97;;
61200;SDS011;47065;52.898;6.992;2023-05-24T11:31:50;12.50;;;3.20;;
61200;SDS011;47065;52.898;6.992;2023-05-24T11:34:21;13.80;;;3.88;;
61200;SDS011;47065;52.898;6.992;2023-05-24T11:36:47;14.30;;;3.90;;
61200;SDS011;47065;52.898;6.992;2023-05-24T11:39:14;14.02;;;3.85;;
61200;SDS011;47065;52.898;6.992;2023-05-24T11:41:40;9.25;;;3.58;;
61200;SDS011;47065;52.898;6.992;2023-05-24T11:44:07;16.27;;;4.63;;
61200;SDS011;47065;52.898;6.992;2023-05-24T11:46:33;16.98;;;3.60;;
61200;SDS011;47065;52.898;6.992;2023-05-24T11:48:59;15.45;;;3.63;;
61200;SDS011;47065;52.898;6.992;2023-05-24T11:51:28;9.07;;;3.20;;
61200;SDS011;47065;52.898;6.992;2023-05-24T11:53:54;13.20;;;3.90;;
61200;SDS011;47065;52.898;6.992;2023-05-24T11:56:21;13.02;;;3.67;;
61200;SDS011;47065;52.898;6.992;2023-05-24T11:58:47;13.68;;;3.65;;
61200;SDS011;47065;52.898;6.992;2023-05-24T12:01:23;14.32;;;4.05;;
61200;SDS011;47065;52.898;6.992;2023-05-24T12:03:50;13.43;;;4.10;;
61200;SDS011;47065;52.898;6.992;2023-05-24T12:06:17;13.18;;;3.35;;
61200;SDS011;47065;52.898;6.992;2023-05-24T12:08:43;6.65;;;2.88;;
61200;SDS011;47065;52.898;6.992;2023-05-24T12:11:09;12.82;;;3.72;;
61200;SDS011;47065;52.898;6.992;2023-05-24T12:13:35;13.77;;;2.72;;
61200;SDS011;47065;52.898;6.992;2023-05-24T12:16:02;10.20;;;3.53;;
61200;SDS011;47065;52.898;6.992;2023-05-24T12:18:27;9.82;;;3.55;;
61200;SDS011;47065;52.898;6.992;2023-05-24T12:20:53;13.88;;;3.47;;
61200;SDS011;47065;52.898;6.992;2023-05-24T12:23:19;8.27;;;2.88;;
61200;SDS011;47065;52.898;6.992;2023-05-24T12:25:56;9.60;;;2.78;;
61200;SDS011;47065;52.898;6.992;2023-05-24T12:28:23;10.65;;;2.55;;
61200;SDS011;47065;52.898;6.992;2023-05-24T12:30:49;11.60;;;3.20;;
61200;SDS011;47065;52.898;6.992;2023-05-24T12:33:17;11.00;;;2.70;;
61200;SDS011;47065;52.898;6.992;2023-05-24T12:35:44;10.35;;;3.10;;
61200;SDS011;47065;52.898;6.992;2023-05-24T12:38:11;6.93;;;2.85;;
61200;SDS011;47065;52.898;6.992;2023-05-24T12:40:39;17.42;;;4.22;;
61200;SDS011;47065;52.898;6.992;2023-05-24T12:43:07;12.32;;;3.60;;
61200;SDS011;47065;52.898;6.992;2023-05-24T12:45:34;13.35;;;3.03;;
61200;SDS011;47065;52.898;6.992;2023-05-24T12:48:01;15.85;;;3.83;;
61200;SDS011;47065;52.898;6.992;2023-05-24T12:50:28;7.22;;;2.58;;
61200;SDS011;47065;52.898;6.992;2023-05-24T12:52:55;9.25;;;2.67;;
61200;SDS011;47065;52.898;6.992;2023-05-24T12:55:22;9.48;;;2.58;;
61200;SDS011;47065;52.898;6.992;2023-05-24T12:57:50;14.18;;;3.35;;
61200;SDS011;47065;52.898;6.992;2023-05-24T13:00:22;10.00;;;3.53;;
61200;SDS011;47065;52.898;6.992;2023-05-24T13:02:51;14.35;;;4.03;;
61200;SDS011;47065;52.898;6.992;2023-05-24T13:05:19;11.38;;;3.20;;
61200;SDS011;47065;52.898;6.992;2023-05-24T13:07:46;16.02;;;3.30;;
61200;SDS011;47065;52.898;6.992;2023-05-24T13:10:14;13.27;;;3.42;;
61200;SDS011;47065;52.898;6.992;2023-05-24T13:12:39;8.85;;;2.60;;
61200;SDS011;47065;52.898;6.992;2023-05-24T13:15:06;11.38;;;3.72;;
61200;SDS011;47065;52.898;6.992;2023-05-24T13:17:32;11.05;;;3.10;;
61200;SDS011;47065;52.898;6.992;2023-05-24T13:20:02;8.65;;;3.80;;
61200;SDS011;47065;52.898;6.992;2023-05-24T13:22:30;8.52;;;2.92;;
61200;SDS011;47065;52.898;6.992;2023-05-24T13:24:57;9.48;;;4.20;;
61200;SDS011;47065;52.898;6.992;2023-05-24T13:27:23;9.45;;;3.50;;
61200;SDS011;47065;52.898;6.992;2023-05-24T13:29:49;10.45;;;3.53;;
61200;SDS011;47065;52.898;6.992;2023-05-24T13:32:14;13.20;;;3.65;;
61200;SDS011;47065;52.898;6.992;2023-05-24T13:34:40;15.73;;;3.30;;
61200;SDS011;47065;52.898;6.992;2023-05-24T13:37:06;10.77;;;3.00;;
61200;SDS011;47065;52.898;6.992;2023-05-24T13:39:32;15.07;;;3.30;;
61200;SDS011;47065;52.898;6.992;2023-05-24T13:41:59;14.93;;;2.63;;
61200;SDS011;47065;52.898;6.992;2023-05-24T13:44:26;12.27;;;3.92;;
61200;SDS011;47065;52.898;6.992;2023-05-24T13:46:51;5.97;;;2.78;;
61200;SDS011;47065;52.898;6.992;2023-05-24T13:49:18;12.52;;;2.92;;
61200;SDS011;47065;52.898;6.992;2023-05-24T13:51:44;6.88;;;2.22;;
61200;SDS011;47065;52.898;6.992;2023-05-24T13:54:11;15.50;;;3.90;;
61200;SDS011;47065;52.898;6.992;2023-05-24T13:56:37;8.77;;;3.90;;
61200;SDS011;47065;52.898;6.992;2023-05-24T13:59:04;12.48;;;3.55;;
61200;SDS011;47065;52.898;6.992;2023-05-24T14:01:30;10.98;;;3.10;;
61200;SDS011;47065;52.898;6.992;2023-05-24T14:03:57;13.70;;;4.28;;
61200;SDS011;47065;52.898;6.992;2023-05-24T14:06:24;13.70;;;4.07;;
61200;SDS011;47065;52.898;6.992;2023-05-24T14:08:49;9.73;;;3.22;;
61200;SDS011;47065;52.898;6.992;2023-05-24T14:11:16;17.65;;;3.33;;
61200;SDS011;47065;52.898;6.992;2023-05-24T14:13:41;10.13;;;2.92;;
61200;SDS011;47065;52.898;6.992;2023-05-24T14:16:08;11.23;;;4.47;;
61200;SDS011;47065;52.898;6.992;2023-05-24T14:18:34;9.35;;;2.95;;
61200;SDS011;47065;52.898;6.992;2023-05-24T14:21:00;16.15;;;3.60;;
61200;SDS011;47065;52.898;6.992;2023-05-24T14:23:26;10.07;;;3.30;;
61200;SDS011;47065;52.898;6.992;2023-05-24T14:25:54;6.93;;;3.25;;
61200;SDS011;47065;52.898;6.992;2023-05-24T14:28:20;9.35;;;3.28;;
61200;SDS011;47065;52.898;6.992;2023-05-24T14:30:46;13.18;;;3.35;;
61200;SDS011;47065;52.898;6.992;2023-05-24T14:33:11;18.15;;;4.20;;
61200;SDS011;47065;52.898;6.992;2023-05-24T14:35:37;10.23;;;2.70;;
61200;SDS011;47065;52.898;6.992;2023-05-24T14:38:07;10.68;;;3.47;;
61200;SDS011;47065;52.898;6.992;2023-05-24T14:40:34;13.93;;;3.30;;
61200;SDS011;47065;52.898;6.992;2023-05-24T14:43:05;9.88;;;2.88;;
61200;SDS011;47065;52.898;6.992;2023-05-24T14:45:34;8.52;;;3.15;;
61200;SDS011;47065;52.898;6.992;2023-05-24T14:47:59;11.35;;;3.40;;
61200;SDS011;47065;52.898;6.992;2023-05-24T14:50:26;11.73;;;3.95;;
61200;SDS011;47065;52.898;6.992;2023-05-24T14:52:52;15.48;;;4.47;;
61200;SDS011;47065;52.898;6.992;2023-05-24T14:55:17;13.98;;;3.22;;
61200;SDS011;47065;52.898;6.992;2023-05-24T14:57:43;9.23;;;3.13;;
61200;SDS011;47065;52.898;6.992;2023-05-24T15:00:08;14.90;;;3.85;;
61200;SDS011;47065;52.898;6.992;2023-05-24T15:02:35;10.60;;;3.17;;